Time;durP1;ratioP1;P1;durP2;ratioP2;P2;SDS_P1;SDS_P2;PMS_P1;PMS_P2;Temp;Humidity;BMP_temperature;BMP_pressure;BME280_temperature;BME280_humidity;BME280_pressure;Samples;Min_cycle;Max_cycle;Signal;HPM_P1;HPM_P2
2022/11/24 00:01:21;;;;;;;;;2.33;2.00;;;;;11.72;64.88;100221.59;5054100;28;45794;-66
2022/11/24 00:03:53;;;;;;;;;10.67;5.33;;;;;11.71;64.91;100228.69;5070671;28;45293;-65
2022/11/24 00:06:19;;;;;;;;;8.00;2.67;;;;;11.72;65.04;100232.31;5069087;28;46273;-68
2022/11/24 00:08:45;;;;;;;;;10.67;4.67;;;;;11.59;65.20;100205.34;5071821;28;45179;-67
2022/11/24 00:11:14;;;;;;;;;6.33;4.33;;;;;11.71;64.88;100233.16;5052324;28;46565;-66
2022/11/24 00:13:39;;;;;;;;;5.00;2.67;;;;;11.66;65.64;100229.53;5070004;28;45142;-65
2022/11/24 00:16:08;;;;;;;;;6.33;4.67;;;;;11.68;65.08;100231.38;5069931;28;45718;-66
2022/11/24 00:18:33;;;;;;;;;8.67;3.67;;;;;11.64;65.15;100236.66;5065042;28;45318;-65
2022/11/24 00:20:58;;;;;;;;;1.00;1.00;;;;;11.61;65.29;100224.13;5069535;28;45745;-66
2022/11/24 00:23:24;;;;;;;;;5.00;3.00;;;;;11.71;65.40;100236.72;5066621;28;45265;-66
2022/11/24 00:25:49;;;;;;;;;4.00;3.00;;;;;11.58;65.76;100208.94;5072410;28;45076;-67
2022/11/24 00:28:14;;;;;;;;;9.33;5.00;;;;;11.67;65.24;100213.50;5054554;28;47827;-66
2022/11/24 00:30:40;;;;;;;;;6.00;4.00;;;;;11.62;65.12;100196.50;5073652;28;45388;-66
2022/11/24 00:33:05;;;;;;;;;7.67;4.67;;;;;11.65;65.51;100199.22;5073352;28;44973;-66
2022/11/24 00:35:30;;;;;;;;;4.33;2.33;;;;;11.78;65.12;100219.00;5073815;28;44917;-67
2022/11/24 00:37:56;;;;;;;;;3.33;2.00;;;;;11.71;65.02;100203.72;5073771;28;45105;-67
2022/11/24 00:40:21;;;;;;;;;5.00;4.33;;;;;11.73;64.88;100208.25;5052357;28;46655;-66
2022/11/24 00:42:46;;;;;;;;;3.00;1.67;;;;;11.47;65.13;100143.69;5073220;28;45068;-66
2022/11/24 00:45:12;;;;;;;;;3.00;3.00;;;;;11.73;64.93;100172.53;5072633;28;45210;-65
2022/11/24 00:47:37;;;;;;;;;7.00;4.00;;;;;11.80;64.00;100195.84;5071955;28;45012;-65
2022/11/24 00:50:03;;;;;;;;;9.00;2.67;;;;;11.79;64.71;100205.63;5063011;28;46584;-68
2022/11/24 00:52:28;;;;;;;;;4.00;2.00;;;;;11.72;64.76;100190.38;5053721;28;45200;-66
2022/11/24 00:54:54;;;;;;;;;3.00;1.33;;;;;11.73;64.19;100186.81;5073323;28;45076;-67
2022/11/24 00:57:19;;;;;;;;;2.67;2.00;;;;;11.80;64.16;100180.66;5068041;28;45382;-67
2022/11/24 00:59:44;;;;;;;;;0.67;0.67;;;;;11.71;63.86;100160.91;5072316;28;45215;-65
2022/11/24 01:02:10;;;;;;;;;4.00;1.67;;;;;11.68;63.87;100177.84;5071292;28;58756;-68
2022/11/24 01:04:35;;;;;;;;;0.00;0.00;;;;;11.65;63.33;100177.81;5055635;28;45262;-65
2022/11/24 01:07:00;;;;;;;;;3.33;1.67;;;;;11.76;62.96;100196.66;5087634;27;45072;-66
2022/11/24 01:09:26;;;;;;;;;0.00;0.00;;;;;11.77;63.28;100211.84;5070233;28;45425;-66
2022/11/24 01:12:00;;;;;;;;;2.67;1.00;;;;;11.65;63.13;100185.84;5052878;28;45339;-65
2022/11/24 01:14:26;;;;;;;;;3.00;0.33;;;;;11.86;62.71;100214.63;5063516;28;45134;-67
2022/11/24 01:16:52;;;;;;;;;1.00;0.00;;;;;11.87;62.65;100223.56;5071491;28;44930;-66
2022/11/24 01:19:18;;;;;;;;;2.00;2.00;;;;;11.66;62.42;100203.66;5072209;28;45338;-67
2022/11/24 01:21:44;;;;;;;;;2.67;1.00;;;;;11.83;62.09;100238.69;5073239;28;45155;-67
2022/11/24 01:24:10;;;;;;;;;2.00;0.00;;;;;11.79;61.47;100239.53;5071362;28;45080;-67
2022/11/24 01:26:36;;;;;;;;;1.67;0.00;;;;;11.63;61.04;100227.69;5073286;28;45151;-66
2022/11/24 01:29:02;;;;;;;;;1.67;0.67;;;;;11.69;60.87;100242.97;5072312;28;45548;-67
2022/11/24 01:31:27;;;;;;;;;5.33;2.00;;;;;11.64;61.05;100252.69;5067607;28;45398;-66
2022/11/24 01:33:53;;;;;;;;;2.00;1.00;;;;;11.60;61.35;100267.81;5067876;28;45338;-66
2022/11/24 01:36:18;;;;;;;;;2.00;1.00;;;;;11.60;61.14;100255.31;5073332;28;44966;-66
2022/11/24 01:38:44;;;;;;;;;0.33;0.33;;;;;11.51;61.31;100247.16;5070177;28;45308;-66
2022/11/24 01:41:14;;;;;;;;;3.33;1.67;;;;;11.57;61.33;100262.41;5071062;28;44916;-65
2022/11/24 01:43:41;;;;;;;;;3.33;1.00;;;;;11.52;61.02;100262.34;5051172;28;45291;-66
2022/11/24 01:46:23;;;;;;;;;0.67;0.00;;;;;11.49;60.74;100272.09;5071059;28;45219;-66
2022/11/24 01:48:56;;;;;;;;;0.67;0.67;;;;;11.35;61.18;100259.44;5068252;28;45415;-66
2022/11/24 01:51:28;;;;;;;;;0.00;0.00;;;;;11.35;60.40;100267.44;5052849;28;45834;-66
2022/11/24 01:54:08;;;;;;;;;0.00;0.00;;;;;11.40;61.22;100283.53;5066438;28;45155;-66
2022/11/24 01:56:36;;;;;;;;;1.00;0.00;;;;;11.43;60.95;100296.97;5054423;28;45191;-65
2022/11/24 01:59:04;;;;;;;;;0.00;0.00;;;;;11.41;60.96;100290.72;5070944;28;45138;-67
2022/11/24 02:01:30;;;;;;;;;1.00;0.00;;;;;11.42;61.70;100313.91;5054222;28;45189;-66
2022/11/24 02:03:57;;;;;;;;;1.67;0.00;;;;;11.39;61.61;100308.50;5053344;28;45147;-67
2022/11/24 02:06:28;;;;;;;;;1.67;0.00;;;;;11.37;62.26;100324.53;5050283;28;45271;-66
2022/11/24 02:09:01;;;;;;;;;0.00;0.00;;;;;11.36;62.25;100333.41;5072368;28;45972;-67
2022/11/24 02:11:32;;;;;;;;;1.00;0.00;;;;;11.28;62.68;100326.16;5072734;28;45047;-66
2022/11/24 02:13:58;;;;;;;;;2.00;1.00;;;;;11.33;63.42;100336.03;5071278;28;45387;-65
2022/11/24 02:16:24;;;;;;;;;0.00;0.00;;;;;11.25;63.02;100327.91;5072564;28;44902;-68
2022/11/24 02:18:50;;;;;;;;;0.00;0.00;;;;;11.32;63.12;100358.34;5071731;28;45288;-68
2022/11/24 02:21:15;;;;;;;;;0.33;0.00;;;;;11.30;64.25;100362.75;5071029;28;45267;-69
2022/11/24 02:23:40;;;;;;;;;0.00;0.00;;;;;11.29;63.36;100360.06;5070668;28;45188;-67
2022/11/24 02:26:34;;;;;;;;;0.00;0.00;;;;;11.30;63.76;100359.16;5072370;28;44973;-68
2022/11/24 02:28:59;;;;;;;;;2.67;0.00;;;;;11.17;64.62;100350.94;5054115;28;47109;-69
2022/11/24 02:31:26;;;;;;;;;0.00;0.00;;;;;11.27;64.59;100376.06;5053977;28;45233;-66
2022/11/24 02:33:52;;;;;;;;;0.00;0.00;;;;;11.26;64.59;100379.63;5053551;28;45040;-67
2022/11/24 02:36:18;;;;;;;;;2.00;0.00;;;;;11.15;64.54;100363.41;5072800;28;45102;-68
2022/11/24 02:38:43;;;;;;;;;0.00;0.00;;;;;11.16;64.58;100372.31;5070931;28;45552;-69
2022/11/24 02:41:13;;;;;;;;;0.67;0.67;;;;;10.74;65.36;100299.41;5070640;28;45214;-67
2022/11/24 02:43:45;;;;;;;;;3.00;0.00;;;;;11.16;65.29;100381.22;5070745;28;45135;-67
2022/11/24 02:46:10;;;;;;;;;0.00;0.00;;;;;11.11;65.32;100374.91;5062682;28;45910;-68
2022/11/24 02:48:37;;;;;;;;;0.00;0.00;;;;;11.21;65.31;100405.38;5070526;28;45668;-66
2022/11/24 02:51:03;;;;;;;;;4.00;0.00;;;;;11.16;65.58;100397.25;5066439;28;44973;-64
2022/11/24 02:53:28;;;;;;;;;0.00;0.00;;;;;11.10;65.49;100398.94;5069704;28;45070;-66
2022/11/24 02:55:53;;;;;;;;;0.33;0.00;;;;;11.17;65.72;100411.53;5070725;28;45141;-65
2022/11/24 02:58:19;;;;;;;;;0.67;0.33;;;;;11.16;65.70;100421.31;5050824;28;46935;-67
2022/11/24 03:00:44;;;;;;;;;1.00;1.00;;;;;11.14;66.14;100414.16;5047528;28;45149;-66
2022/11/24 03:03:10;;;;;;;;;1.00;1.00;;;;;11.07;66.38;100407.81;5069960;28;44998;-66
2022/11/24 03:05:35;;;;;;;;;0.00;0.00;;;;;11.14;66.65;100436.44;5070527;28;45318;-65
2022/11/24 03:08:01;;;;;;;;;3.00;1.00;;;;;11.13;66.85;100436.41;5051126;28;47274;-65
2022/11/24 03:10:27;;;;;;;;;0.00;0.00;;;;;11.06;66.69;100441.63;5051468;28;45453;-67
2022/11/24 03:12:53;;;;;;;;;2.00;1.00;;;;;10.98;66.58;100426.34;5071514;28;45142;-66
2022/11/24 03:15:18;;;;;;;;;0.00;0.00;;;;;11.04;66.74;100446.06;5071856;28;45154;-66
2022/11/24 03:17:44;;;;;;;;;3.00;0.00;;;;;10.65;66.97;100384.72;5060056;28;47347;-65
2022/11/24 03:20:10;;;;;;;;;1.00;1.00;;;;;10.95;66.52;100447.66;5072647;28;45165;-66
2022/11/24 03:22:35;;;;;;;;;5.00;0.00;;;;;10.97;67.43;100449.50;5070170;28;45546;-67
2022/11/24 03:25:01;;;;;;;;;4.00;1.00;;;;;10.99;66.68;100463.78;5064320;28;46155;-65
2022/11/24 03:27:26;;;;;;;;;3.00;1.00;;;;;10.86;67.35;100445.69;5069572;28;45798;-64
2022/11/24 03:29:51;;;;;;;;;3.00;1.33;;;;;10.95;67.52;100458.34;5069098;28;45147;-65
2022/11/24 03:32:17;;;;;;;;;3.67;1.67;;;;;10.60;67.55;100405.97;5071003;28;45104;-65
2022/11/24 03:34:42;;;;;;;;;0.67;0.67;;;;;10.88;68.10;100462.66;5063947;28;45194;-66
2022/11/24 03:37:07;;;;;;;;;2.00;1.00;;;;;10.79;67.47;100444.69;5067093;28;45205;-65
2022/11/24 03:39:33;;;;;;;;;1.00;1.00;;;;;10.75;68.00;100439.22;5068136;28;45432;-65
2022/11/24 03:41:58;;;;;;;;;1.67;1.67;;;;;10.93;67.74;100471.69;5050528;28;45604;-66
2022/11/24 03:44:23;;;;;;;;;3.00;1.00;;;;;10.73;67.87;100436.53;5070053;28;45015;-66
2022/11/24 03:46:50;;;;;;;;;3.00;0.00;;;;;10.93;67.54;100468.09;5068537;28;45216;-66
2022/11/24 03:49:16;;;;;;;;;0.00;0.00;;;;;10.81;67.88;100448.28;5049554;28;45304;-65
2022/11/24 03:51:41;;;;;;;;;2.67;1.00;;;;;10.88;67.83;100468.00;5065838;28;45126;-65
2022/11/24 03:54:07;;;;;;;;;0.33;0.00;;;;;10.80;67.99;100462.50;5070395;28;45009;-65
2022/11/24 03:56:32;;;;;;;;;6.00;1.00;;;;;10.83;68.04;100475.03;5068496;28;45530;-65
2022/11/24 03:58:57;;;;;;;;;5.33;2.00;;;;;10.75;67.85;100474.88;5068879;28;45154;-65
2022/11/24 04:01:23;;;;;;;;;2.33;1.00;;;;;10.62;68.30;100451.44;5068690;28;52011;-66
2022/11/24 04:03:48;;;;;;;;;2.00;1.00;;;;;10.68;67.84;100471.16;5069768;28;45405;-65
2022/11/24 04:06:13;;;;;;;;;2.67;0.00;;;;;10.68;68.25;100478.28;5063599;28;45517;-64
2022/11/24 04:08:39;;;;;;;;;3.33;2.00;;;;;10.74;67.98;100496.19;5063066;28;45492;-65
2022/11/24 04:11:04;;;;;;;;;2.00;0.00;;;;;10.53;68.39;100454.81;5068868;28;45118;-65
2022/11/24 04:13:29;;;;;;;;;4.00;1.00;;;;;10.76;68.03;100498.06;5069160;28;45297;-65
2022/11/24 04:15:55;;;;;;;;;1.00;0.00;;;;;10.58;68.04;100471.84;5071654;28;48702;-65
2022/11/24 04:18:21;;;;;;;;;3.67;1.00;;;;;10.74;68.16;100502.47;5074128;28;45382;-65
2022/11/24 04:20:49;;;;;;;;;0.33;0.33;;;;;10.70;68.25;100504.16;5073194;28;45212;-66
2022/11/24 04:23:14;;;;;;;;;1.00;1.00;;;;;10.67;68.16;100506.78;5069791;28;45042;-65
2022/11/24 04:25:41;;;;;;;;;1.00;1.00;;;;;10.68;68.13;100497.00;5052746;28;46740;-65
2022/11/24 04:28:06;;;;;;;;;6.67;0.00;;;;;10.75;67.61;100517.63;5077331;28;45047;-64
2022/11/24 04:30:32;;;;;;;;;1.00;1.00;;;;;10.76;68.00;100522.09;5055455;28;45087;-65
2022/11/24 04:32:57;;;;;;;;;2.00;1.00;;;;;10.70;67.91;100509.50;5073117;28;44948;-65
2022/11/24 04:35:23;;;;;;;;;2.67;1.00;;;;;10.73;68.18;100521.13;5072512;28;45233;-66
2022/11/24 04:37:48;;;;;;;;;4.67;2.00;;;;;10.74;68.25;100538.97;5046670;28;45438;-65
2022/11/24 04:40:14;;;;;;;;;3.00;1.33;;;;;10.67;68.17;100529.91;5068796;28;45600;-65
2022/11/24 04:42:40;;;;;;;;;2.33;1.00;;;;;10.59;68.30;100511.06;5048665;28;47504;-65
2022/11/24 04:45:06;;;;;;;;;1.33;0.00;;;;;10.75;68.31;100544.34;5050861;28;46662;-64
2022/11/24 04:47:32;;;;;;;;;3.00;1.00;;;;;10.70;68.34;100535.31;5067596;28;45462;-65
2022/11/24 04:49:57;;;;;;;;;1.00;1.00;;;;;10.59;68.13;100512.81;5068932;28;45280;-65
2022/11/24 04:52:24;;;;;;;;;2.00;0.00;;;;;10.73;68.61;100537.19;5071233;28;45226;-65
2022/11/24 04:54:50;;;;;;;;;1.00;0.00;;;;;10.73;67.96;100542.50;5068213;28;46320;-65
2022/11/24 04:57:21;;;;;;;;;6.00;1.00;;;;;10.43;68.59;100504.44;5069377;28;45136;-65
2022/11/24 04:59:46;;;;;;;;;2.33;1.00;;;;;10.71;68.16;100558.50;5046976;28;45200;-66
2022/11/24 05:02:12;;;;;;;;;2.33;0.00;;;;;10.70;68.05;100554.03;5071088;28;45155;-65
2022/11/24 05:04:38;;;;;;;;;2.67;1.00;;;;;10.58;68.47;100538.63;5073408;28;45605;-65
2022/11/24 05:07:03;;;;;;;;;3.33;2.00;;;;;10.60;68.30;100550.25;5067753;28;45374;-65
2022/11/24 05:09:29;;;;;;;;;3.67;1.33;;;;;10.66;68.18;100570.88;5051393;28;45094;-65
2022/11/24 05:11:54;;;;;;;;;6.67;2.67;;;;;10.67;68.27;100562.88;5068905;28;45146;-66
2022/11/24 05:14:20;;;;;;;;;2.67;1.67;;;;;10.64;67.92;100564.56;5068397;28;45887;-64
2022/11/24 05:16:45;;;;;;;;;2.00;1.00;;;;;10.50;67.71;100538.44;5063881;28;54452;-66
2022/11/24 05:19:10;;;;;;;;;2.00;2.00;;;;;10.67;68.17;100564.63;5069742;28;45107;-66
2022/11/24 05:21:36;;;;;;;;;0.33;0.33;;;;;10.62;68.05;100550.28;5071055;28;45538;-66
2022/11/24 05:24:01;;;;;;;;;2.67;1.00;;;;;10.64;67.65;100559.22;5069423;28;46442;-66
2022/11/24 05:26:26;;;;;;;;;5.67;2.33;;;;;10.65;67.87;100566.38;5070188;28;45321;-65
2022/11/24 05:28:52;;;;;;;;;1.00;1.00;;;;;10.75;67.46;100584.41;5070247;28;45059;-65
2022/11/24 05:31:17;;;;;;;;;2.00;0.67;;;;;10.77;67.82;100588.03;5070616;28;45114;-66
2022/11/24 05:33:44;;;;;;;;;1.00;1.00;;;;;10.77;67.51;100580.00;5069617;28;45124;-65
2022/11/24 05:36:51;;;;;;;;;2.00;1.00;;;;;10.77;67.89;100574.66;5070496;28;45071;-66
2022/11/24 05:38:56;;;;;;;;;4.67;1.33;;;;;10.60;67.47;100539.56;5051707;28;45224;-66
2022/11/24 05:41:21;;;;;;;;;2.00;0.00;;;;;10.74;67.63;100568.34;5050122;28;45310;-65
2022/11/24 05:43:47;;;;;;;;;1.67;1.00;;;;;10.73;67.51;100571.91;5069808;28;47141;-65
2022/11/24 05:46:12;;;;;;;;;2.33;1.33;;;;;10.82;67.71;100591.72;5048606;28;45414;-65
2022/11/24 05:48:38;;;;;;;;;3.67;1.00;;;;;10.76;67.33;100580.00;5051611;28;45173;-66
2022/11/24 05:51:03;;;;;;;;;4.33;1.00;;;;;10.75;67.70;100586.19;5064343;28;44987;-67
2022/11/24 05:53:28;;;;;;;;;0.67;0.67;;;;;10.80;67.59;100608.59;5054185;28;46676;-67
2022/11/24 05:55:54;;;;;;;;;5.67;2.00;;;;;10.54;67.75;100560.78;5072509;28;45042;-65
2022/11/24 05:58:19;;;;;;;;;1.00;1.00;;;;;10.80;67.81;100609.47;5071113;28;45330;-65
2022/11/24 06:00:45;;;;;;;;;1.67;0.00;;;;;10.65;67.44;100588.66;5054738;28;44901;-67
2022/11/24 06:03:11;;;;;;;;;1.00;1.00;;;;;10.77;67.90;100612.06;5068693;28;45568;-67
2022/11/24 06:05:36;;;;;;;;;0.00;0.00;;;;;10.82;67.87;100612.19;5071244;28;45337;-66
2022/11/24 06:08:02;;;;;;;;;0.67;0.67;;;;;10.72;67.96;100613.75;5053234;28;45075;-65
2022/11/24 06:10:27;;;;;;;;;1.00;1.00;;;;;10.70;67.56;100611.03;5053780;28;45460;-67
2022/11/24 06:12:53;;;;;;;;;2.00;2.00;;;;;10.68;67.98;100612.78;5064365;28;45636;-66
2022/11/24 06:15:18;;;;;;;;;5.00;2.00;;;;;10.67;69.03;100599.38;5071139;28;45222;-67
2022/11/24 06:17:44;;;;;;;;;4.67;2.67;;;;;10.83;68.12;100633.59;5068661;28;47284;-67
2022/11/24 06:20:10;;;;;;;;;6.00;4.00;;;;;10.77;67.87;100625.44;5052549;28;45249;-66
2022/11/24 06:22:36;;;;;;;;;1.67;1.00;;;;;10.78;67.73;100629.03;5064539;28;45319;-67
2022/11/24 06:25:02;;;;;;;;;1.00;1.00;;;;;10.78;68.26;100626.34;5069814;28;45111;-66
2022/11/24 06:27:28;;;;;;;;;0.00;0.00;;;;;10.81;67.86;100638.00;5071539;28;45016;-67
2022/11/24 06:29:53;;;;;;;;;3.33;1.00;;;;;10.81;68.14;100637.13;5070122;28;45229;-66
2022/11/24 06:32:18;;;;;;;;;4.00;1.00;;;;;10.79;68.05;100641.50;5069895;28;45198;-65
2022/11/24 06:34:44;;;;;;;;;1.00;1.00;;;;;10.80;68.20;100637.97;5070962;28;45532;-66
2022/11/24 06:37:10;;;;;;;;;4.67;2.00;;;;;10.80;68.68;100649.56;5047931;28;45301;-66
2022/11/24 06:39:36;;;;;;;;;6.00;1.00;;;;;10.78;68.45;100642.41;5069789;28;45382;-66
2022/11/24 06:42:01;;;;;;;;;2.33;2.33;;;;;10.77;68.29;100648.59;5068849;28;45556;-66
2022/11/24 06:44:27;;;;;;;;;6.33;3.33;;;;;10.72;68.90;100656.50;5071836;28;44932;-66
2022/11/24 06:46:53;;;;;;;;;4.00;2.00;;;;;10.65;68.34;100634.06;5054225;28;45262;-66
2022/11/24 06:49:19;;;;;;;;;5.00;3.33;;;;;10.79;68.67;100655.78;5071792;28;45344;-66
2022/11/24 06:51:44;;;;;;;;;2.67;1.67;;;;;10.65;68.83;100634.06;5053390;28;47450;-64
2022/11/24 06:54:14;;;;;;;;;2.33;2.33;;;;;10.77;68.97;100670.84;5070467;28;45084;-67
2022/11/24 06:56:39;;;;;;;;;1.00;1.00;;;;;10.75;68.75;100677.94;5052844;28;45119;-67
2022/11/24 06:59:05;;;;;;;;;1.00;1.00;;;;;10.69;69.04;100675.13;5046219;28;44967;-66
2022/11/24 07:01:31;;;;;;;;;1.33;0.00;;;;;10.70;69.20;100683.16;5049393;28;45858;-68
2022/11/24 07:03:57;;;;;;;;;3.00;1.67;;;;;10.70;69.42;100684.94;5068744;28;45313;-67
2022/11/24 07:06:23;;;;;;;;;3.33;2.33;;;;;10.65;69.27;100686.59;5065291;28;45398;-67
2022/11/24 07:08:49;;;;;;;;;3.67;1.00;;;;;10.70;69.46;100698.31;5071139;28;45098;-66
2022/11/24 07:11:17;;;;;;;;;4.33;4.33;;;;;10.68;69.63;100708.06;5067331;28;45582;-66
2022/11/24 07:13:44;;;;;;;;;7.67;4.00;;;;;10.67;69.45;100717.84;5067824;28;45320;-67
2022/11/24 07:16:20;;;;;;;;;10.00;9.25;;;;;10.66;69.87;100712.47;5076975;28;45167;-69
2022/11/24 07:18:47;;;;;;;;;6.00;3.33;;;;;10.65;69.33;100716.00;5067101;28;45202;-69
2022/11/24 07:21:13;;;;;;;;;3.33;3.00;;;;;10.73;70.05;100719.78;5052690;28;46517;-69
2022/11/24 07:23:39;;;;;;;;;4.00;4.00;;;;;10.69;69.82;100715.19;5032530;28;45521;-68
2022/11/24 07:26:06;;;;;;;;;3.67;3.33;;;;;10.59;69.52;100699.81;5066241;28;45009;-68
2022/11/24 07:28:32;;;;;;;;;7.00;6.00;;;;;10.78;70.02;100733.25;5053879;28;45127;-70
2022/11/24 07:30:57;;;;;;;;;15.33;8.00;;;;;10.80;69.65;100735.06;5070036;28;45563;-66
2022/11/24 07:33:26;;;;;;;;;25.50;17.75;;;;;10.80;69.93;100731.50;5058987;28;45033;-67
2022/11/24 07:35:52;;;;;;;;;18.75;9.25;;;;;10.74;69.89;100724.25;5050844;28;45046;-66
2022/11/24 07:38:17;;;;;;;;;4.67;3.00;;;;;10.79;70.08;100733.28;5070076;28;45052;-66
2022/11/24 07:40:43;;;;;;;;;9.75;6.50;;;;;10.69;69.72;100716.13;5072027;28;45408;-69
2022/11/24 07:43:09;;;;;;;;;10.00;4.33;;;;;10.72;69.61;100722.41;5066991;28;45221;-66
2022/11/24 07:45:34;;;;;;;;;7.33;7.33;;;;;10.80;70.28;100728.84;5049232;28;45236;-67
2022/11/24 07:47:59;;;;;;;;;7.50;4.75;;;;;10.76;70.26;100733.22;5068191;28;45331;-67
2022/11/24 07:50:25;;;;;;;;;15.50;8.00;;;;;10.76;70.25;100745.69;5064874;28;45808;-66
2022/11/24 07:52:50;;;;;;;;;10.25;9.75;;;;;10.67;70.15;100736.56;5068297;28;45097;-66
2022/11/24 07:55:16;;;;;;;;;12.50;8.00;;;;;10.65;70.19;100740.03;5073854;28;45607;-67
2022/11/24 07:57:41;;;;;;;;;16.25;11.00;;;;;10.65;70.56;100740.03;5074251;28;44977;-66
2022/11/24 08:00:08;;;;;;;;;17.50;10.75;;;;;10.69;70.73;100747.25;5070892;28;45155;-66
2022/11/24 08:02:33;;;;;;;;;17.75;12.00;;;;;10.72;70.41;100746.44;5069653;28;45088;-66
2022/11/24 08:04:59;;;;;;;;;18.00;12.00;;;;;10.81;70.80;100768.06;5066320;28;45131;-70
2022/11/24 08:07:24;;;;;;;;;14.00;8.50;;;;;10.79;70.55;100765.38;5070423;28;45105;-68
2022/11/24 08:09:50;;;;;;;;;17.00;11.00;;;;;10.69;70.59;100758.88;5069397;28;46137;-66
2022/11/24 08:12:20;;;;;;;;;17.00;12.00;;;;;10.54;70.69;100729.06;5052760;28;44954;-66
2022/11/24 08:14:46;;;;;;;;;20.75;12.25;;;;;10.80;70.99;100776.94;5071722;28;45443;-68
2022/11/24 08:17:11;;;;;;;;;7.00;6.00;;;;;10.70;70.61;100768.69;5074463;28;45172;-67
2022/11/24 08:19:38;;;;;;;;;15.75;10.50;;;;;10.79;71.03;100789.41;5060824;28;45493;-67
2022/11/24 08:22:03;;;;;;;;;7.75;4.50;;;;;10.35;70.93;100702.75;5045072;28;45858;-67
2022/11/24 08:24:30;;;;;;;;;17.00;15.25;;;;;10.91;71.12;100801.28;5048641;28;46008;-66
2022/11/24 08:26:55;;;;;;;;;7.00;7.00;;;;;10.39;70.25;100705.53;5030129;28;46074;-65
2022/11/24 08:29:21;;;;;;;;;16.50;10.50;;;;;10.98;70.95;100801.47;5050055;28;45725;-66
2022/11/24 08:31:46;;;;;;;;;13.75;9.50;;;;;10.98;69.76;100800.56;5046975;28;45542;-66
2022/11/24 08:34:12;;;;;;;;;9.50;7.75;;;;;11.00;70.10;100806.84;5047423;28;45564;-66
2022/11/24 08:36:37;;;;;;;;;14.00;8.00;;;;;10.99;69.35;100816.66;5031690;28;45544;-65
2022/11/24 08:39:02;;;;;;;;;15.50;7.50;;;;;10.96;70.24;100821.91;5026431;28;46806;-66
2022/11/24 08:41:29;;;;;;;;;21.25;10.25;;;;;10.92;70.03;100808.44;5031225;28;45451;-67
2022/11/24 08:43:54;;;;;;;;;8.25;7.25;;;;;10.97;70.55;100823.75;5030397;28;46237;-66
2022/11/24 08:46:20;;;;;;;;;12.25;5.25;;;;;10.93;70.34;100815.59;5049071;28;45671;-66
2022/11/24 08:48:52;;;;;;;;;11.00;8.50;;;;;10.93;70.55;100807.56;5046622;28;45579;-66
2022/11/24 08:51:20;;;;;;;;;13.00;10.50;;;;;11.04;70.44;100817.66;5046888;28;46320;-68
2022/11/24 08:53:46;;;;;;;;;27.75;15.25;;;;;11.09;70.61;100820.47;5025744;28;45743;-67
2022/11/24 08:56:15;;;;;;;;;9.75;7.25;;;;;11.11;70.53;100816.06;5046267;28;45520;-66
2022/11/24 08:58:40;;;;;;;;;11.50;6.00;;;;;10.93;70.30;100775.50;5048443;28;45708;-66
2022/11/24 09:01:12;;;;;;;;;9.00;7.00;;;;;11.17;70.44;100812.63;5025034;28;45632;-66
2022/11/24 09:03:38;;;;;;;;;17.00;8.75;;;;;11.21;69.84;100814.53;5041344;28;45474;-67
2022/11/24 09:06:04;;;;;;;;;8.33;6.00;;;;;11.24;70.22;100825.28;5040770;28;45453;-68
2022/11/24 09:08:30;;;;;;;;;3.67;3.67;;;;;11.28;70.41;100829.84;5044458;28;46412;-66
2022/11/24 09:11:00;;;;;;;;;14.50;11.00;;;;;11.25;69.90;100822.66;5045346;28;45915;-66
2022/11/24 09:13:26;;;;;;;;;9.33;6.00;;;;;11.35;69.73;100828.22;5020191;28;45603;-66
2022/11/24 09:15:51;;;;;;;;;15.75;8.25;;;;;11.23;69.77;100808.31;5051225;28;46476;-65
2022/11/24 09:18:16;;;;;;;;;29.75;17.00;;;;;11.33;70.15;100819.25;5047268;28;52596;-66
2022/11/24 09:20:42;;;;;;;;;29.00;17.50;;;;;11.27;69.30;100805.72;5029495;28;45531;-68
2022/11/24 09:23:07;;;;;;;;;13.00;8.50;;;;;11.39;69.68;100833.69;5047761;28;45689;-67
2022/11/24 09:25:33;;;;;;;;;23.75;14.25;;;;;11.35;69.52;100825.53;5058827;28;45374;-64
2022/11/24 09:27:58;;;;;;;;;13.25;10.25;;;;;11.38;69.71;100821.19;5078074;28;45383;-66
2022/11/24 09:30:24;;;;;;;;;25.75;18.00;;;;;11.51;69.05;100840.22;5065950;28;45397;-68
2022/11/24 09:32:50;;;;;;;;;25.50;14.00;;;;;11.47;69.29;100817.81;5051003;28;45291;-67
2022/11/24 09:35:16;;;;;;;;;16.25;9.25;;;;;11.60;68.46;100827.06;5054999;28;45571;-67
2022/11/24 09:37:43;;;;;;;;;19.50;13.50;;;;;11.60;68.74;100819.03;5054572;28;45514;-67
2022/11/24 09:40:13;;;;;;;;;12.25;10.25;;;;;11.61;68.29;100819.06;5035337;28;45408;-67
2022/11/24 09:43:18;;;;;;;;;9.67;6.33;;;;;11.70;68.07;100823.72;5031613;28;45459;-68
2022/11/24 09:45:58;;;;;;;;;7.33;7.33;;;;;11.72;67.62;100821.06;5048409;28;45689;-67
2022/11/24 09:48:34;;;;;;;;;6.33;4.33;;;;;11.64;68.03;100804.84;5045191;28;46249;-66
2022/11/24 09:51:03;;;;;;;;;10.33;7.00;;;;;11.69;67.84;100796.91;5031222;28;45774;-68
2022/11/24 09:53:28;;;;;;;;;14.67;9.00;;;;;11.83;67.13;100824.91;5032672;28;45535;-67
2022/11/24 09:56:22;;;;;;;;;5.33;5.00;;;;;11.86;66.60;100824.94;5031897;28;45546;-67
2022/11/24 09:58:49;;;;;;;;;18.50;10.00;;;;;11.88;66.82;100831.25;5030131;27;47358;-66
2022/11/24 10:01:25;;;;;;;;;16.50;9.25;;;;;11.95;67.44;100838.59;5049836;28;45641;-67
2022/11/24 10:03:52;;;;;;;;;15.25;8.75;;;;;12.03;66.86;100849.47;5046662;28;45410;-69
2022/11/24 10:06:30;;;;;;;;;21.25;10.75;;;;;12.12;67.37;100855.00;5048420;28;45459;-68
2022/11/24 10:08:55;;;;;;;;;13.50;10.00;;;;;12.18;66.42;100862.28;5030390;28;47787;-67
2022/11/24 10:11:41;;;;;;;;;15.67;9.00;;;;;12.16;66.41;100846.19;5052126;28;45362;-67
2022/11/24 10:14:25;;;;;;;;;10.00;3.25;;;;;12.29;65.90;100841.06;5046447;28;45784;-67
2022/11/24 10:17:12;;;;;;;;;11.75;9.00;;;;;12.38;66.04;100833.25;5030685;28;45458;-69
2022/11/24 10:19:51;;;;;;;;;15.00;7.00;;;;;12.44;65.85;100829.75;5032458;28;47203;-67
2022/11/24 10:22:41;;;;;;;;;28.75;13.50;;;;;12.41;65.81;100801.16;5030353;28;45336;-69
2022/11/24 10:25:17;;;;;;;;;14.25;12.00;;;;;12.58;65.57;100825.59;5046018;28;45530;-66
2022/11/24 10:27:45;;;;;;;;;8.67;5.67;;;;;12.60;66.07;100814.91;5047366;28;45389;-67
2022/11/24 10:30:16;;;;;;;;;9.33;6.67;;;;;12.62;65.90;100806.03;5021225;28;46292;-68
2022/11/24 10:32:46;;;;;;;;;7.67;3.67;;;;;12.67;64.56;100806.09;5049606;28;45592;-68
2022/11/24 10:35:39;;;;;;;;;8.33;6.00;;;;;12.59;65.78;100772.88;5048486;28;45642;-69
2022/11/24 10:38:19;;;;;;;;;9.33;7.67;;;;;12.79;64.92;100802.75;5040141;28;46406;-67
2022/11/24 10:40:52;;;;;;;;;13.00;8.00;;;;;12.78;65.11;100782.19;5048117;28;48308;-67
2022/11/24 10:43:18;;;;;;;;;10.33;7.00;;;;;12.87;64.36;100793.06;5049032;28;45626;-66
2022/11/24 10:45:46;;;;;;;;;13.00;8.00;;;;;12.95;64.83;100799.47;5049619;28;45506;-68
2022/11/24 10:48:18;;;;;;;;;8.67;7.00;;;;;12.80;63.87;100775.97;5049710;28;45456;-68
2022/11/24 10:50:44;;;;;;;;;10.67;8.00;;;;;12.93;64.99;100793.16;5034111;28;47320;-69
2022/11/24 10:53:23;;;;;;;;;16.33;6.33;;;;;12.91;64.19;100778.84;5052134;28;45342;-68
2022/11/24 10:55:55;;;;;;;;;9.00;6.67;;;;;12.97;63.71;100789.66;5053214;28;45535;-68
2022/11/24 10:58:37;;;;;;;;;6.00;5.00;;;;;12.98;64.24;100785.19;5053203;28;45544;-69
2022/11/24 11:01:11;;;;;;;;;5.33;5.33;;;;;13.04;63.81;100788.88;5029082;28;47698;-69
2022/11/24 11:03:46;;;;;;;;;13.25;11.75;;;;;12.93;64.16;100762.78;5046348;28;45482;-68
2022/11/24 11:06:19;;;;;;;;;12.00;9.00;;;;;13.01;63.29;100761.13;5041136;28;45558;-70
2022/11/24 11:08:45;;;;;;;;;15.67;11.33;;;;;12.95;63.35;100747.59;5026688;28;45566;-69
2022/11/24 11:11:29;;;;;;;;;12.67;9.00;;;;;13.15;63.38;100767.63;5050402;28;46134;-68
2022/11/24 11:14:02;;;;;;;;;12.33;11.33;;;;;13.28;63.40;100768.69;5026561;28;45657;-67
2022/11/24 11:16:51;;;;;;;;;8.33;5.67;;;;;13.28;63.07;100766.00;5033933;28;45435;-69
2022/11/24 11:19:37;;;;;;;;;11.00;11.00;;;;;13.23;63.55;100749.88;5033968;28;45461;-68
2022/11/24 11:22:31;;;;;;;;;10.33;10.00;;;;;13.36;63.27;100758.13;5052786;28;46193;-70
2022/11/24 11:25:09;;;;;;;;;12.67;8.33;;;;;13.40;62.91;100752.81;5051647;28;45375;-69